This is the latest recevied weather packets stored in our database for station/object KD4WLE. If no packets are shown the sender has not sent any weather packets the latest 10 day(s).
| Time | Temp. | Humidity | Pressure | Rain* | Wind** | Luminosity | Snow |
|---|---|---|---|---|---|---|---|
| 1777829863 | 23.89° C | 75% | 1018.8 hPa | 0 mm | - | 859 W/m² | - |
| 1777829559 | 23.89° C | 74% | 1018.7 hPa | 0 mm | - | 837 W/m² | - |
| 1777829256 | 23.89° C | 75% | 1019 hPa | 0 mm | - | 848 W/m² | - |
| 1777828953 | 23.89° C | 75% | 1018.7 hPa | 0 mm | - | 680 W/m² | - |
| 1777828649 | 23.89° C | 75% | 1018.9 hPa | 0 mm | - | 631 W/m² | - |
| 1777828347 | 24.44° C | 73% | 1018.8 hPa | 0 mm | - | 969 W/m² | - |
| 1777828044 | 23.89° C | 74% | 1018.9 hPa | 0 mm | - | 988 W/m² | - |
| 1777827740 | 23.33° C | 77% | 1018.7 hPa | 0 mm | - | 722 W/m² | - |
| 1777827437 | 23.33° C | 75% | 1019 hPa | 0 mm | - | 1028 W/m² | - |
| 1777827134 | 23.33° C | 77% | 1019.1 hPa | 0 mm | - | 352 W/m² | - |
| 1777826830 | 22.78° C | 77% | 1018.8 hPa | 0 mm | - | 430 W/m² | - |
| 1777826528 | 22.78° C | 77% | 1019.1 hPa | 0 mm | - | 263 W/m² | - |
| 1777826224 | 23.33° C | 76% | 1019 hPa | 0 mm | - | 271 W/m² | - |
| 1777825922 | 23.33° C | 75% | 1019 hPa | 0 mm | - | 360 W/m² | - |
| 1777825619 | 23.33° C | 75% | 1018.9 hPa | 0 mm | - | 612 W/m² | - |
| 1777825317 | 22.78° C | 76% | 1019.1 hPa | 0 mm | - | 501 W/m² | - |
| 1777825013 | 23.33° C | 75% | 1019.1 hPa | 0 mm | - | 595 W/m² | - |
| 1777824709 | 22.78° C | 77% | 1019 hPa | 0 mm | - | 474 W/m² | - |
| 1777824406 | 23.33° C | 76% | 1019.3 hPa | 0 mm | - | 526 W/m² | - |
| 1777824102 | 23.33° C | 77% | 1019.1 hPa | 0 mm | - | 429 W/m² | - |
| 1777823799 | 23.33° C | 75% | 1019.1 hPa | 0 mm | - | 407 W/m² | - |
| 1777823496 | 23.89° C | 76% | 1018.9 hPa | 0 mm | - | 863 W/m² | - |
| 1777823193 | 23.89° C | 75% | 1018.9 hPa | 0 mm | - | 835 W/m² | - |
| 1777822891 | 23.33° C | 76% | 1019 hPa | 0 mm | - | 829 W/m² | - |
| 1777822589 | 22.78° C | 78% | 1019.1 hPa | 0 mm | - | 805 W/m² | - |
* Rain latest hour (hover to see other rain measurements)
** Current wind speed in m/s (hover to see current wind gust speed)